Feeding Hills, Massachusetts
Current Conditions -  °F | °C
As of 3:53 PM on Saturday 22 Nov 2014 (Local Time) from KBAF Reporting Station
Overcast Overcast  
Wind Chill: 33°   Ceiling: 6500
Heat Index: 41°   Visibility: 10mi
Dew Point: 10°   Wind: 15mph
Humidity: 28%   Direction: 180°S
Pressure: 30.15"   Gusts: 21mph
Location:  42.07°N, 72.68°W
Report Text: KBAF 222053Z 18013G18KT 10SM OVC065 05/M12 A3015 RMK AO2 SLP218 T00501122 56022
Loading
Personal Weather Stations






























Interactive Weather Map New forecast layout! Learn more

10-Day Weather Forecast

Advertisements
Track Severe Weather on mobile